sensor_id;sensor_type;location;lat;lon;timestamp;pressure;altitude;pressure_sealevel;temperature;humidity
61814;BME280;57055;-35.296;149.168;2023-05-22T00:01:56;96139.64;;;3.70;53.84
61814;BME280;57055;-35.296;149.168;2023-05-22T00:04:25;96141.26;;;3.94;53.34
61814;BME280;57055;-35.296;149.168;2023-05-22T00:06:54;96150.79;;;4.04;53.40
61814;BME280;57055;-35.296;149.168;2023-05-22T00:09:24;96154.40;;;4.14;52.58
61814;BME280;57055;-35.296;149.168;2023-05-22T00:11:53;96154.94;;;4.10;52.76
61814;BME280;57055;-35.296;149.168;2023-05-22T00:14:22;96152.50;;;4.10;52.98
61814;BME280;57055;-35.296;149.168;2023-05-22T00:16:51;96147.94;;;4.57;52.86
61814;BME280;57055;-35.296;149.168;2023-05-22T00:19:20;96142.03;;;4.30;52.84
61814;BME280;57055;-35.296;149.168;2023-05-22T00:21:49;96138.30;;;4.44;52.47
61814;BME280;57055;-35.296;149.168;2023-05-22T00:24:18;96137.63;;;4.36;52.41
61814;BME280;57055;-35.296;149.168;2023-05-22T00:26:46;96137.54;;;4.70;52.12
61814;BME280;57055;-35.296;149.168;2023-05-22T00:29:15;96135.16;;;4.43;52.10
61814;BME280;57055;-35.296;149.168;2023-05-22T00:31:44;96132.45;;;4.87;51.95
61814;BME280;57055;-35.296;149.168;2023-05-22T00:34:13;96131.43;;;4.85;51.92
61814;BME280;57055;-35.296;149.168;2023-05-22T00:36:42;96125.89;;;4.39;51.87
61814;BME280;57055;-35.296;149.168;2023-05-22T00:39:11;96120.24;;;5.05;51.84
61814;BME280;57055;-35.296;149.168;2023-05-22T00:41:39;96115.74;;;5.13;52.21
61814;BME280;57055;-35.296;149.168;2023-05-22T00:44:08;96111.14;;;5.05;52.47
61814;BME280;57055;-35.296;149.168;2023-05-22T00:46:37;96108.79;;;5.17;52.15
61814;BME280;57055;-35.296;149.168;2023-05-22T00:49:06;96107.88;;;5.13;51.80
61814;BME280;57055;-35.296;149.168;2023-05-22T00:51:35;96106.48;;;5.14;51.73
61814;BME280;57055;-35.296;149.168;2023-05-22T00:54:05;96105.52;;;5.21;51.49
61814;BME280;57055;-35.296;149.168;2023-05-22T00:56:33;96100.85;;;5.27;51.40
61814;BME280;57055;-35.296;149.168;2023-05-22T00:59:02;96098.59;;;5.49;50.96
61814;BME280;57055;-35.296;149.168;2023-05-22T01:01:31;96100.41;;;5.60;50.77
61814;BME280;57055;-35.296;149.168;2023-05-22T01:04:01;96098.88;;;5.24;51.23
61814;BME280;57055;-35.296;149.168;2023-05-22T01:06:31;96094.81;;;5.23;51.41
61814;BME280;57055;-35.296;149.168;2023-05-22T01:09:00;96094.31;;;5.37;51.32
61814;BME280;57055;-35.296;149.168;2023-05-22T01:11:40;96092.76;;;5.47;51.23
61814;BME280;57055;-35.296;149.168;2023-05-22T01:14:19;96090.89;;;6.13;50.94
61814;BME280;57055;-35.296;149.168;2023-05-22T01:16:54;96087.47;;;6.28;50.60
61814;BME280;57055;-35.296;149.168;2023-05-22T01:19:51;96085.04;;;6.34;50.35
61814;BME280;57055;-35.296;149.168;2023-05-22T01:22:33;96087.69;;;5.97;50.28
61814;BME280;57055;-35.296;149.168;2023-05-22T01:25:24;96088.22;;;6.22;50.17
61814;BME280;57055;-35.296;149.168;2023-05-22T01:28:13;96081.27;;;6.45;50.12
61814;BME280;57055;-35.296;149.168;2023-05-22T01:31:00;96077.66;;;6.65;49.96
61814;BME280;57055;-35.296;149.168;2023-05-22T01:33:34;96073.86;;;6.68;50.15
61814;BME280;57055;-35.296;149.168;2023-05-22T01:36:06;96068.96;;;6.52;49.91
61814;BME280;57055;-35.296;149.168;2023-05-22T01:38:35;96064.17;;;6.78;49.31
61814;BME280;57055;-35.296;149.168;2023-05-22T01:41:05;96058.54;;;6.86;49.31
61814;BME280;57055;-35.296;149.168;2023-05-22T01:43:34;96055.42;;;6.96;48.94
61814;BME280;57055;-35.296;149.168;2023-05-22T01:46:04;96052.46;;;6.84;47.73
61814;BME280;57055;-35.296;149.168;2023-05-22T01:48:34;96052.02;;;7.20;47.27
61814;BME280;57055;-35.296;149.168;2023-05-22T01:51:06;96047.81;;;7.49;46.47
61814;BME280;57055;-35.296;149.168;2023-05-22T01:53:42;96040.69;;;7.50;45.99
61814;BME280;57055;-35.296;149.168;2023-05-22T01:56:18;96037.36;;;7.74;45.91
61814;BME280;57055;-35.296;149.168;2023-05-22T01:58:52;96038.60;;;7.63;45.55
61814;BME280;57055;-35.296;149.168;2023-05-22T02:01:26;96038.84;;;8.14;45.55
61814;BME280;57055;-35.296;149.168;2023-05-22T02:03:57;96037.90;;;7.54;46.93
61814;BME280;57055;-35.296;149.168;2023-05-22T02:06:28;96033.68;;;7.64;47.28
61814;BME280;57055;-35.296;149.168;2023-05-22T02:09:00;96028.43;;;7.62;46.16
61814;BME280;57055;-35.296;149.168;2023-05-22T02:11:31;96020.27;;;7.76;45.26
61814;BME280;57055;-35.296;149.168;2023-05-22T02:14:01;96012.21;;;7.96;45.23
61814;BME280;57055;-35.296;149.168;2023-05-22T02:16:30;96008.37;;;7.82;45.42
61814;BME280;57055;-35.296;149.168;2023-05-22T02:19:00;96004.15;;;8.02;45.58
61814;BME280;57055;-35.296;149.168;2023-05-22T02:21:29;96001.26;;;8.27;45.60
61814;BME280;57055;-35.296;149.168;2023-05-22T02:23:57;95998.07;;;8.33;45.87
61814;BME280;57055;-35.296;149.168;2023-05-22T02:26:26;95995.04;;;8.56;45.97
61814;BME280;57055;-35.296;149.168;2023-05-22T02:28:56;95995.39;;;8.57;45.94
61814;BME280;57055;-35.296;149.168;2023-05-22T02:31:24;95994.00;;;8.57;45.73
61814;BME280;57055;-35.296;149.168;2023-05-22T02:33:53;95990.87;;;8.62;45.71
61814;BME280;57055;-35.296;149.168;2023-05-22T02:36:22;95976.47;;;8.74;45.73
61814;BME280;57055;-35.296;149.168;2023-05-22T02:38:51;95970.61;;;8.78;45.93
61814;BME280;57055;-35.296;149.168;2023-05-22T02:41:20;95965.16;;;9.02;45.48
61814;BME280;57055;-35.296;149.168;2023-05-22T02:43:48;95958.77;;;9.07;45.73
61814;BME280;57055;-35.296;149.168;2023-05-22T02:46:17;95957.72;;;9.05;45.96
61814;BME280;57055;-35.296;149.168;2023-05-22T02:48:46;95954.79;;;8.97;46.67
61814;BME280;57055;-35.296;149.168;2023-05-22T02:51:15;95948.12;;;9.03;46.42
61814;BME280;57055;-35.296;149.168;2023-05-22T02:53:43;95941.84;;;9.21;45.96
61814;BME280;57055;-35.296;149.168;2023-05-22T02:56:12;95937.07;;;9.30;45.67
61814;BME280;57055;-35.296;149.168;2023-05-22T02:58:41;95935.96;;;9.42;45.92
61814;BME280;57055;-35.296;149.168;2023-05-22T03:01:10;95930.46;;;9.83;45.86
61814;BME280;57055;-35.296;149.168;2023-05-22T03:03:38;95923.48;;;9.26;45.74
61814;BME280;57055;-35.296;149.168;2023-05-22T03:06:07;95922.22;;;9.53;45.87
61814;BME280;57055;-35.296;149.168;2023-05-22T03:08:36;95919.83;;;9.76;45.50
61814;BME280;57055;-35.296;149.168;2023-05-22T03:11:05;95918.97;;;9.93;45.19
61814;BME280;57055;-35.296;149.168;2023-05-22T03:13:33;95913.46;;;9.82;45.25
61814;BME280;57055;-35.296;149.168;2023-05-22T03:16:02;95909.40;;;9.55;45.42
61814;BME280;57055;-35.296;149.168;2023-05-22T03:18:33;95906.09;;;9.61;45.31
61814;BME280;57055;-35.296;149.168;2023-05-22T03:21:02;95901.75;;;10.18;45.02
61814;BME280;57055;-35.296;149.168;2023-05-22T03:23:31;95899.98;;;9.97;44.95
61814;BME280;57055;-35.296;149.168;2023-05-22T03:25:59;95900.48;;;10.43;44.58
61814;BME280;57055;-35.296;149.168;2023-05-22T03:28:28;95895.75;;;10.13;44.39
61814;BME280;57055;-35.296;149.168;2023-05-22T03:30:58;95890.97;;;10.29;44.03
61814;BME280;57055;-35.296;149.168;2023-05-22T03:33:27;95888.89;;;10.30;44.13
61814;BME280;57055;-35.296;149.168;2023-05-22T03:35:55;95883.30;;;10.15;43.97
61814;BME280;57055;-35.296;149.168;2023-05-22T03:38:24;95883.11;;;9.86;44.11
61814;BME280;57055;-35.296;149.168;2023-05-22T03:40:53;95882.61;;;10.20;44.48
61814;BME280;57055;-35.296;149.168;2023-05-22T03:43:21;95881.77;;;9.97;44.99
61814;BME280;57055;-35.296;149.168;2023-05-22T03:45:50;95877.26;;;10.22;45.05
61814;BME280;57055;-35.296;149.168;2023-05-22T03:48:20;95874.50;;;10.10;44.72
61814;BME280;57055;-35.296;149.168;2023-05-22T03:50:49;95866.44;;;10.03;44.57
61814;BME280;57055;-35.296;149.168;2023-05-22T03:53:18;95868.21;;;10.15;44.75
61814;BME280;57055;-35.296;149.168;2023-05-22T03:55:47;95866.36;;;10.15;45.13
61814;BME280;57055;-35.296;149.168;2023-05-22T03:58:15;95866.51;;;10.23;45.62
61814;BME280;57055;-35.296;149.168;2023-05-22T04:00:44;95862.54;;;9.76;46.23
61814;BME280;57055;-35.296;149.168;2023-05-22T04:03:13;95860.65;;;9.83;46.64
61814;BME280;57055;-35.296;149.168;2023-05-22T04:05:42;95865.85;;;10.02;47.17
61814;BME280;57055;-35.296;149.168;2023-05-22T04:08:10;95867.04;;;10.10;47.35
61814;BME280;57055;-35.296;149.168;2023-05-22T04:10:39;95859.33;;;9.59;47.62
61814;BME280;57055;-35.296;149.168;2023-05-22T04:13:08;95862.75;;;10.01;48.06
61814;BME280;57055;-35.296;149.168;2023-05-22T04:15:36;95863.18;;;9.84;48.52
61814;BME280;57055;-35.296;149.168;2023-05-22T04:18:05;95858.20;;;10.01;48.67
61814;BME280;57055;-35.296;149.168;2023-05-22T04:20:35;95856.26;;;10.02;49.00
61814;BME280;57055;-35.296;149.168;2023-05-22T04:23:03;95860.03;;;10.15;49.18
61814;BME280;57055;-35.296;149.168;2023-05-22T04:25:32;95864.90;;;9.76;49.23
61814;BME280;57055;-35.296;149.168;2023-05-22T04:28:01;95867.30;;;9.68;49.17
61814;BME280;57055;-35.296;149.168;2023-05-22T04:30:30;95866.57;;;9.68;49.38
61814;BME280;57055;-35.296;149.168;2023-05-22T04:33:00;95864.87;;;10.19;49.83
61814;BME280;57055;-35.296;149.168;2023-05-22T04:35:29;95857.33;;;10.02;50.21
61814;BME280;57055;-35.296;149.168;2023-05-22T04:37:58;95863.02;;;10.04;50.36
61814;BME280;57055;-35.296;149.168;2023-05-22T04:40:27;95861.06;;;10.12;50.32
61814;BME280;57055;-35.296;149.168;2023-05-22T04:42:56;95869.31;;;9.72;50.49
61814;BME280;57055;-35.296;149.168;2023-05-22T04:45:25;95870.85;;;10.19;50.35
61814;BME280;57055;-35.296;149.168;2023-05-22T04:47:53;95867.94;;;9.86;50.61
61814;BME280;57055;-35.296;149.168;2023-05-22T04:50:22;95865.94;;;9.80;50.93
61814;BME280;57055;-35.296;149.168;2023-05-22T04:52:51;95867.36;;;9.66;51.15
61814;BME280;57055;-35.296;149.168;2023-05-22T04:55:19;95868.69;;;10.14;51.25
61814;BME280;57055;-35.296;149.168;2023-05-22T04:57:48;95863.44;;;10.18;51.21
61814;BME280;57055;-35.296;149.168;2023-05-22T05:00:18;95863.93;;;10.09;51.91
61814;BME280;57055;-35.296;149.168;2023-05-22T05:02:46;95865.62;;;9.93;51.78
61814;BME280;57055;-35.296;149.168;2023-05-22T05:05:15;95861.96;;;9.88;51.56
61814;BME280;57055;-35.296;149.168;2023-05-22T05:07:45;95860.06;;;10.14;51.61
61814;BME280;57055;-35.296;149.168;2023-05-22T05:10:14;95857.60;;;9.94;51.53
61814;BME280;57055;-35.296;149.168;2023-05-22T05:12:43;95857.52;;;9.75;51.25
61814;BME280;57055;-35.296;149.168;2023-05-22T05:15:12;95859.76;;;10.24;51.26
61814;BME280;57055;-35.296;149.168;2023-05-22T05:17:40;95852.74;;;9.80;51.05
61814;BME280;57055;-35.296;149.168;2023-05-22T05:20:10;95853.48;;;10.08;50.91
61814;BME280;57055;-35.296;149.168;2023-05-22T05:22:39;95860.09;;;10.28;51.30
61814;BME280;57055;-35.296;149.168;2023-05-22T05:25:09;95862.61;;;9.82;51.40
61814;BME280;57055;-35.296;149.168;2023-05-22T05:27:38;95861.75;;;10.26;51.42
61814;BME280;57055;-35.296;149.168;2023-05-22T05:30:08;95860.88;;;9.71;51.47
61814;BME280;57055;-35.296;149.168;2023-05-22T05:32:36;95856.41;;;9.75;51.13
61814;BME280;57055;-35.296;149.168;2023-05-22T05:35:06;95859.33;;;10.21;50.98
61814;BME280;57055;-35.296;149.168;2023-05-22T05:37:35;95860.66;;;9.66;50.82
61814;BME280;57055;-35.296;149.168;2023-05-22T05:40:05;95864.65;;;9.94;50.74
61814;BME280;57055;-35.296;149.168;2023-05-22T05:42:35;95870.61;;;10.24;50.47
61814;BME280;57055;-35.296;149.168;2023-05-22T05:45:04;95868.48;;;9.90;50.59
61814;BME280;57055;-35.296;149.168;2023-05-22T05:47:34;95867.14;;;10.05;50.68
61814;BME280;57055;-35.296;149.168;2023-05-22T05:50:02;95865.37;;;10.04;50.98
61814;BME280;57055;-35.296;149.168;2023-05-22T05:52:31;95863.34;;;9.96;50.93
61814;BME280;57055;-35.296;149.168;2023-05-22T05:55:00;95863.68;;;9.69;50.96
61814;BME280;57055;-35.296;149.168;2023-05-22T05:57:30;95859.99;;;9.96;51.16
61814;BME280;57055;-35.296;149.168;2023-05-22T05:59:58;95854.29;;;9.55;51.24
61814;BME280;57055;-35.296;149.168;2023-05-22T06:02:27;95856.43;;;9.86;51.17
61814;BME280;57055;-35.296;149.168;2023-05-22T06:04:56;95860.67;;;9.79;51.26
61814;BME280;57055;-35.296;149.168;2023-05-22T06:07:25;95858.36;;;9.77;51.40
61814;BME280;57055;-35.296;149.168;2023-05-22T06:09:54;95864.14;;;9.48;51.45
61814;BME280;57055;-35.296;149.168;2023-05-22T06:12:23;95867.97;;;9.73;51.74
61814;BME280;57055;-35.296;149.168;2023-05-22T06:14:52;95868.95;;;9.44;51.82
61814;BME280;57055;-35.296;149.168;2023-05-22T06:17:21;95876.14;;;9.87;51.87
61814;BME280;57055;-35.296;149.168;2023-05-22T06:19:50;95877.66;;;9.63;51.92
61814;BME280;57055;-35.296;149.168;2023-05-22T06:22:18;95876.21;;;9.50;52.35
61814;BME280;57055;-35.296;149.168;2023-05-22T06:24:48;95877.19;;;9.38;52.46
61814;BME280;57055;-35.296;149.168;2023-05-22T06:27:17;95877.57;;;9.28;52.63
61814;BME280;57055;-35.296;149.168;2023-05-22T06:29:45;95875.60;;;9.44;52.87
61814;BME280;57055;-35.296;149.168;2023-05-22T06:32:16;95871.95;;;9.31;53.10
61814;BME280;57055;-35.296;149.168;2023-05-22T06:34:46;95864.99;;;9.27;53.17
61814;BME280;57055;-35.296;149.168;2023-05-22T06:37:15;95868.07;;;9.16;53.22
61814;BME280;57055;-35.296;149.168;2023-05-22T06:39:44;95868.87;;;9.11;53.17
61814;BME280;57055;-35.296;149.168;2023-05-22T06:42:13;95875.46;;;9.06;53.25
61814;BME280;57055;-35.296;149.168;2023-05-22T06:44:41;95868.76;;;8.91;53.54
61814;BME280;57055;-35.296;149.168;2023-05-22T06:47:10;95873.08;;;8.89;53.55
61814;BME280;57055;-35.296;149.168;2023-05-22T06:49:39;95872.16;;;8.89;53.69
61814;BME280;57055;-35.296;149.168;2023-05-22T06:52:08;95870.82;;;8.70;54.17
61814;BME280;57055;-35.296;149.168;2023-05-22T06:54:36;95870.39;;;8.84;54.35
61814;BME280;57055;-35.296;149.168;2023-05-22T06:57:05;95868.50;;;8.31;54.53
61814;BME280;57055;-35.296;149.168;2023-05-22T06:59:34;95866.14;;;8.69;54.62
61814;BME280;57055;-35.296;149.168;2023-05-22T07:02:03;95873.50;;;8.35;54.88
61814;BME280;57055;-35.296;149.168;2023-05-22T07:04:31;95873.70;;;8.82;54.89
61814;BME280;57055;-35.296;149.168;2023-05-22T07:07:00;95875.64;;;8.20;55.23
61814;BME280;57055;-35.296;149.168;2023-05-22T07:09:30;95878.57;;;8.35;55.34
61814;BME280;57055;-35.296;149.168;2023-05-22T07:11:58;95882.38;;;8.24;55.40
61814;BME280;57055;-35.296;149.168;2023-05-22T07:14:27;95883.35;;;8.16;55.60
61814;BME280;57055;-35.296;149.168;2023-05-22T07:16:56;95891.34;;;8.06;55.71
61814;BME280;57055;-35.296;149.168;2023-05-22T07:19:25;95899.43;;;7.98;55.84
61814;BME280;57055;-35.296;149.168;2023-05-22T07:21:54;95900.72;;;7.87;56.16
61814;BME280;57055;-35.296;149.168;2023-05-22T07:24:22;95900.69;;;7.78;56.30
61814;BME280;57055;-35.296;149.168;2023-05-22T07:26:52;95905.20;;;7.64;56.69
61814;BME280;57055;-35.296;149.168;2023-05-22T07:29:21;95909.91;;;7.48;56.89
61814;BME280;57055;-35.296;149.168;2023-05-22T07:31:49;95913.71;;;7.63;57.13
61814;BME280;57055;-35.296;149.168;2023-05-22T07:34:18;95914.92;;;7.47;57.47
61814;BME280;57055;-35.296;149.168;2023-05-22T07:36:47;95912.87;;;7.38;57.62
61814;BME280;57055;-35.296;149.168;2023-05-22T07:39:17;95910.42;;;7.51;57.88
61814;BME280;57055;-35.296;149.168;2023-05-22T07:41:48;95919.17;;;7.22;58.04
61814;BME280;57055;-35.296;149.168;2023-05-22T07:44:17;95923.79;;;7.28;58.29
61814;BME280;57055;-35.296;149.168;2023-05-22T07:46:46;95928.52;;;6.98;58.35
61814;BME280;57055;-35.296;149.168;2023-05-22T07:49:14;95931.96;;;7.21;58.34
61814;BME280;57055;-35.296;149.168;2023-05-22T07:51:43;95930.64;;;6.74;58.29
61814;BME280;57055;-35.296;149.168;2023-05-22T07:54:12;95934.87;;;7.11;58.13
61814;BME280;57055;-35.296;149.168;2023-05-22T07:56:41;95935.18;;;7.26;58.37
61814;BME280;57055;-35.296;149.168;2023-05-22T07:59:10;95932.98;;;7.13;58.47
61814;BME280;57055;-35.296;149.168;2023-05-22T08:01:40;95936.48;;;7.14;58.65
61814;BME280;57055;-35.296;149.168;2023-05-22T08:04:10;95940.56;;;6.67;58.60
61814;BME280;57055;-35.296;149.168;2023-05-22T08:06:38;95940.00;;;6.67;59.10
61814;BME280;57055;-35.296;149.168;2023-05-22T08:09:07;95942.38;;;6.57;59.15
61814;BME280;57055;-35.296;149.168;2023-05-22T08:11:36;95947.40;;;6.98;59.23
61814;BME280;57055;-35.296;149.168;2023-05-22T08:14:05;95951.68;;;6.66;59.21
61814;BME280;57055;-35.296;149.168;2023-05-22T08:16:34;95957.82;;;6.44;59.09
61814;BME280;57055;-35.296;149.168;2023-05-22T08:19:03;95958.97;;;6.43;59.04
61814;BME280;57055;-35.296;149.168;2023-05-22T08:21:32;95959.58;;;6.50;59.22
61814;BME280;57055;-35.296;149.168;2023-05-22T08:24:01;95957.97;;;6.38;59.46
61814;BME280;57055;-35.296;149.168;2023-05-22T08:26:30;95963.69;;;6.63;59.46
61814;BME280;57055;-35.296;149.168;2023-05-22T08:28:59;95961.09;;;6.52;59.54
61814;BME280;57055;-35.296;149.168;2023-05-22T08:31:29;95964.69;;;6.05;59.42
61814;BME280;57055;-35.296;149.168;2023-05-22T08:33:58;95971.61;;;6.19;59.40
61814;BME280;57055;-35.296;149.168;2023-05-22T08:36:28;95972.83;;;6.08;59.65
61814;BME280;57055;-35.296;149.168;2023-05-22T08:38:58;95968.11;;;6.35;59.56
61814;BME280;57055;-35.296;149.168;2023-05-22T08:41:30;95960.04;;;6.28;59.76
61814;BME280;57055;-35.296;149.168;2023-05-22T08:43:59;95967.50;;;6.07;59.59
61814;BME280;57055;-35.296;149.168;2023-05-22T08:46:28;95966.99;;;6.03;59.62
61814;BME280;57055;-35.296;149.168;2023-05-22T08:49:00;95973.42;;;6.01;59.64
61814;BME280;57055;-35.296;149.168;2023-05-22T08:51:31;95979.11;;;6.23;59.78
61814;BME280;57055;-35.296;149.168;2023-05-22T08:54:02;95977.55;;;5.95;59.88
61814;BME280;57055;-35.296;149.168;2023-05-22T08:56:32;95977.94;;;6.16;59.83
61814;BME280;57055;-35.296;149.168;2023-05-22T08:59:03;95980.43;;;5.95;60.12
61814;BME280;57055;-35.296;149.168;2023-05-22T09:01:35;95974.62;;;5.88;60.09
61814;BME280;57055;-35.296;149.168;2023-05-22T09:04:05;95983.17;;;5.87;60.21
61814;BME280;57055;-35.296;149.168;2023-05-22T09:06:35;95987.58;;;5.65;59.88
61814;BME280;57055;-35.296;149.168;2023-05-22T09:09:06;95993.83;;;5.89;59.87
61814;BME280;57055;-35.296;149.168;2023-05-22T09:11:36;95993.35;;;5.59;59.76
61814;BME280;57055;-35.296;149.168;2023-05-22T09:14:13;95991.87;;;5.90;59.75
61814;BME280;57055;-35.296;149.168;2023-05-22T09:16:47;95990.10;;;5.53;59.81
61814;BME280;57055;-35.296;149.168;2023-05-22T09:19:17;95999.26;;;5.44;59.92
61814;BME280;57055;-35.296;149.168;2023-05-22T09:21:47;96000.40;;;5.80;59.52
61814;BME280;57055;-35.296;149.168;2023-05-22T09:24:16;96003.90;;;6.04;59.57
61814;BME280;57055;-35.296;149.168;2023-05-22T09:26:46;96000.04;;;5.74;59.74
61814;BME280;57055;-35.296;149.168;2023-05-22T09:29:17;95997.67;;;5.41;59.77
61814;BME280;57055;-35.296;149.168;2023-05-22T09:31:47;96000.08;;;5.59;59.84
61814;BME280;57055;-35.296;149.168;2023-05-22T09:34:16;96000.89;;;5.50;60.11
61814;BME280;57055;-35.296;149.168;2023-05-22T09:36:48;95996.41;;;5.45;60.21
61814;BME280;57055;-35.296;149.168;2023-05-22T09:39:17;95996.77;;;5.37;60.36
61814;BME280;57055;-35.296;149.168;2023-05-22T09:41:46;95998.19;;;5.66;60.06
61814;BME280;57055;-35.296;149.168;2023-05-22T09:44:16;96001.31;;;5.65;59.97
61814;BME280;57055;-35.296;149.168;2023-05-22T09:46:46;96005.85;;;5.24;60.19
61814;BME280;57055;-35.296;149.168;2023-05-22T09:49:15;96006.51;;;5.15;60.29
61814;BME280;57055;-35.296;149.168;2023-05-22T09:51:45;96013.16;;;5.10;60.39
61814;BME280;57055;-35.296;149.168;2023-05-22T09:54:15;96016.03;;;5.34;60.35
61814;BME280;57055;-35.296;149.168;2023-05-22T09:56:49;96013.88;;;5.07;60.83
61814;BME280;57055;-35.296;149.168;2023-05-22T09:59:21;96014.72;;;5.40;60.70
61814;BME280;57055;-35.296;149.168;2023-05-22T10:01:50;96015.33;;;4.94;60.61
61814;BME280;57055;-35.296;149.168;2023-05-22T10:04:22;96018.24;;;5.36;60.66
61814;BME280;57055;-35.296;149.168;2023-05-22T10:06:53;96023.18;;;5.06;60.78
61814;BME280;57055;-35.296;149.168;2023-05-22T10:09:26;96029.93;;;5.36;60.66
61814;BME280;57055;-35.296;149.168;2023-05-22T10:11:57;96036.85;;;4.94;60.55
61814;BME280;57055;-35.296;149.168;2023-05-22T10:14:27;96040.64;;;5.23;60.05
61814;BME280;57055;-35.296;149.168;2023-05-22T10:16:58;96042.19;;;5.21;60.08
61814;BME280;57055;-35.296;149.168;2023-05-22T10:19:27;96046.04;;;4.87;60.30
61814;BME280;57055;-35.296;149.168;2023-05-22T10:21:56;96045.03;;;5.31;60.32
61814;BME280;57055;-35.296;149.168;2023-05-22T10:24:27;96048.10;;;4.73;60.45
61814;BME280;57055;-35.296;149.168;2023-05-22T10:26:57;96049.78;;;5.22;60.36
61814;BME280;57055;-35.296;149.168;2023-05-22T10:29:34;96050.71;;;5.25;60.11
61814;BME280;57055;-35.296;149.168;2023-05-22T10:32:11;96055.25;;;4.77;59.98
61814;BME280;57055;-35.296;149.168;2023-05-22T10:34:53;96055.60;;;4.89;60.31
61814;BME280;57055;-35.296;149.168;2023-05-22T10:37:40;96052.92;;;4.94;60.18
61814;BME280;57055;-35.296;149.168;2023-05-22T10:40:12;96052.24;;;5.12;60.80
61814;BME280;57055;-35.296;149.168;2023-05-22T10:42:43;96056.24;;;5.02;60.47
61814;BME280;57055;-35.296;149.168;2023-05-22T10:45:13;96056.61;;;5.00;60.34
61814;BME280;57055;-35.296;149.168;2023-05-22T10:47:43;96056.39;;;4.94;60.84
61814;BME280;57055;-35.296;149.168;2023-05-22T10:50:12;96064.06;;;4.92;60.71
61814;BME280;57055;-35.296;149.168;2023-05-22T10:52:41;96062.34;;;4.80;60.83
61814;BME280;57055;-35.296;149.168;2023-05-22T10:55:11;96064.36;;;4.59;60.96
61814;BME280;57055;-35.296;149.168;2023-05-22T10:57:40;96067.14;;;4.50;61.44
61814;BME280;57055;-35.296;149.168;2023-05-22T11:00:11;96064.08;;;4.48;61.21
61814;BME280;57055;-35.296;149.168;2023-05-22T11:02:42;96059.87;;;4.39;60.94
61814;BME280;57055;-35.296;149.168;2023-05-22T11:05:52;96061.88;;;4.36;60.94
61814;BME280;57055;-35.296;149.168;2023-05-22T11:08:38;96064.71;;;4.20;61.02
61814;BME280;57055;-35.296;149.168;2023-05-22T11:11:12;96066.98;;;4.22;61.09
61814;BME280;57055;-35.296;149.168;2023-05-22T11:13:41;96069.73;;;4.50;61.41
61814;BME280;57055;-35.296;149.168;2023-05-22T11:16:10;96073.63;;;4.27;61.50
61814;BME280;57055;-35.296;149.168;2023-05-22T11:18:39;96074.77;;;4.01;61.63
61814;BME280;57055;-35.296;149.168;2023-05-22T11:21:10;96072.98;;;3.95;61.87
61814;BME280;57055;-35.296;149.168;2023-05-22T11:23:39;96075.23;;;4.00;61.63
61814;BME280;57055;-35.296;149.168;2023-05-22T11:26:25;96071.73;;;3.82;62.32
61814;BME280;57055;-35.296;149.168;2023-05-22T11:28:54;96070.79;;;4.20;62.06
61814;BME280;57055;-35.296;149.168;2023-05-22T11:31:23;96072.34;;;3.99;61.98
61814;BME280;57055;-35.296;149.168;2023-05-22T11:33:53;96073.78;;;3.97;61.99
61814;BME280;57055;-35.296;149.168;2023-05-22T11:36:22;96074.25;;;3.94;61.58
61814;BME280;57055;-35.296;149.168;2023-05-22T11:38:55;96080.21;;;3.79;61.23
61814;BME280;57055;-35.296;149.168;2023-05-22T11:41:28;96080.73;;;4.13;61.52
61814;BME280;57055;-35.296;149.168;2023-05-22T11:43:58;96085.89;;;3.85;61.44
61814;BME280;57055;-35.296;149.168;2023-05-22T11:46:27;96088.82;;;3.77;61.61
61814;BME280;57055;-35.296;149.168;2023-05-22T11:48:57;96087.23;;;4.01;61.64
61814;BME280;57055;-35.296;149.168;2023-05-22T11:51:27;96091.94;;;3.58;61.50
61814;BME280;57055;-35.296;149.168;2023-05-22T11:53:57;96094.82;;;3.73;61.28
61814;BME280;57055;-35.296;149.168;2023-05-22T11:56:26;96094.05;;;3.69;61.31
61814;BME280;57055;-35.296;149.168;2023-05-22T11:58:54;96096.47;;;3.78;61.75
61814;BME280;57055;-35.296;149.168;2023-05-22T12:01:23;96097.01;;;3.40;61.35
61814;BME280;57055;-35.296;149.168;2023-05-22T12:03:52;96096.69;;;3.79;61.17
61814;BME280;57055;-35.296;149.168;2023-05-22T12:06:21;96093.39;;;3.75;61.03
61814;BME280;57055;-35.296;149.168;2023-05-22T12:08:50;96093.12;;;3.64;61.26
61814;BME280;57055;-35.296;149.168;2023-05-22T12:11:19;96092.70;;;3.44;61.15
61814;BME280;57055;-35.296;149.168;2023-05-22T12:13:48;96094.59;;;3.73;60.76
61814;BME280;57055;-35.296;149.168;2023-05-22T12:16:19;96096.49;;;3.38;60.65
61814;BME280;57055;-35.296;149.168;2023-05-22T12:18:52;96092.00;;;3.25;60.45
61814;BME280;57055;-35.296;149.168;2023-05-22T12:21:21;96092.63;;;3.49;60.48
61814;BME280;57055;-35.296;149.168;2023-05-22T12:23:50;96085.96;;;3.47;60.69
61814;BME280;57055;-35.296;149.168;2023-05-22T12:26:19;96084.53;;;3.38;60.78
61814;BME280;57055;-35.296;149.168;2023-05-22T12:28:51;96082.31;;;3.21;61.05
61814;BME280;57055;-35.296;149.168;2023-05-22T12:31:23;96078.03;;;3.13;61.03
61814;BME280;57055;-35.296;149.168;2023-05-22T12:33:54;96076.94;;;3.11;61.34
61814;BME280;57055;-35.296;149.168;2023-05-22T12:36:33;96087.63;;;3.09;61.09
61814;BME280;57055;-35.296;149.168;2023-05-22T12:39:05;96091.76;;;3.06;60.55
61814;BME280;57055;-35.296;149.168;2023-05-22T12:41:34;96091.68;;;2.93;60.78
61814;BME280;57055;-35.296;149.168;2023-05-22T12:44:03;96093.50;;;2.87;60.63
61814;BME280;57055;-35.296;149.168;2023-05-22T12:46:32;96093.27;;;2.77;60.70
61814;BME280;57055;-35.296;149.168;2023-05-22T12:49:02;96092.44;;;2.78;60.52
61814;BME280;57055;-35.296;149.168;2023-05-22T12:51:32;96094.12;;;2.71;60.76
61814;BME280;57055;-35.296;149.168;2023-05-22T12:54:02;96091.33;;;2.74;60.84